createdAt,value
2018-05-14T00:01:46.541Z,2.83
2018-05-14T00:04:14.035Z,3.00
2018-05-14T00:06:42.285Z,3.37
2018-05-14T00:09:09.797Z,3.10
2018-05-14T00:11:37.268Z,3.00
2018-05-14T00:14:04.733Z,3.03
2018-05-14T00:16:32.241Z,2.57
2018-05-14T00:18:59.721Z,2.37
2018-05-14T00:21:27.982Z,3.03
2018-05-14T00:23:56.220Z,2.57
2018-05-14T00:26:23.717Z,3.00
2018-05-14T00:28:51.188Z,3.53
2018-05-14T00:31:19.453Z,3.70
2018-05-14T00:33:47.689Z,4.23
2018-05-14T00:36:15.162Z,4.30
2018-05-14T00:38:42.669Z,3.70
2018-05-14T00:41:10.181Z,3.93
2018-05-14T00:43:37.688Z,3.90
2018-05-14T00:46:05.177Z,3.67
2018-05-14T00:48:32.662Z,4.30
2018-05-14T00:51:00.125Z,4.30
2018-05-14T00:53:27.629Z,5.17
2018-05-14T00:55:55.109Z,5.80
2018-05-14T00:58:22.597Z,5.03
2018-05-14T01:00:50.867Z,5.90
2018-05-14T01:03:18.375Z,7.00
2018-05-14T01:05:45.849Z,5.80
2018-05-14T01:08:13.354Z,6.63
2018-05-14T01:10:40.826Z,6.43
2018-05-14T01:13:09.065Z,7.40
2018-05-14T01:15:36.553Z,6.80
2018-05-14T01:18:04.032Z,7.03
2018-05-14T01:20:32.302Z,7.70
2018-05-14T01:23:00.550Z,6.83
2018-05-14T01:25:28.087Z,6.60
2018-05-14T01:27:55.566Z,6.83
2018-05-14T01:30:23.061Z,6.90
2018-05-14T01:32:51.326Z,6.37
2018-05-14T01:35:18.829Z,6.70
2018-05-14T01:37:46.304Z,6.83
2018-05-14T01:40:13.804Z,6.43
2018-05-14T01:42:42.046Z,6.07
2018-05-14T01:45:09.541Z,6.80
2018-05-14T01:47:37.777Z,6.50
2018-05-14T01:50:05.270Z,6.67
2018-05-14T01:52:32.744Z,6.80
2018-05-14T01:55:01.063Z,6.60
2018-05-14T01:57:28.525Z,6.70
2018-05-14T01:59:56.011Z,6.97
2018-05-14T02:02:23.528Z,7.13
2018-05-14T02:04:51.049Z,6.43
2018-05-14T02:07:19.294Z,5.90
2018-05-14T02:09:46.774Z,7.53
2018-05-14T02:12:14.285Z,6.93
2018-05-14T02:14:41.749Z,6.03
2018-05-14T02:17:09.253Z,7.40
2018-05-14T02:19:36.713Z,6.53
2018-05-14T02:22:04.973Z,7.00
2018-05-14T02:24:33.212Z,7.87
2018-05-14T02:27:00.743Z,6.17
2018-05-14T02:29:29.012Z,6.53
2018-05-14T02:31:57.297Z,6.40
2018-05-14T02:34:25.557Z,6.60
2018-05-14T02:36:53.800Z,7.27
2018-05-14T02:39:21.300Z,6.77
2018-05-14T02:41:49.556Z,6.40
2018-05-14T02:44:17.055Z,6.93
2018-05-14T02:46:44.534Z,7.43
2018-05-14T02:49:12.030Z,7.30
2018-05-14T02:51:39.502Z,7.37
2018-05-14T02:54:07.765Z,7.10
2018-05-14T02:56:35.242Z,8.50
2018-05-14T02:59:03.524Z,7.03
2018-05-14T03:01:31.762Z,7.07
2018-05-14T03:03:59.248Z,8.53
2018-05-14T03:06:27.512Z,7.97
2018-05-14T03:08:55.039Z,7.83
2018-05-14T03:11:22.510Z,7.20
2018-05-14T03:13:50.006Z,8.00
2018-05-14T03:16:18.265Z,8.43
2018-05-14T03:18:46.065Z,9.10
2018-05-14T03:21:13.581Z,8.80
2018-05-14T03:23:41.043Z,9.07
2018-05-14T03:26:08.556Z,8.37
2018-05-14T03:28:36.053Z,8.37
2018-05-14T03:31:03.574Z,9.83
2018-05-14T03:33:31.064Z,8.67
2018-05-14T03:35:58.541Z,8.23
2018-05-14T03:38:26.033Z,8.27
2018-05-14T03:40:53.540Z,8.70
2018-05-14T03:43:21.029Z,8.27
2018-05-14T03:45:48.509Z,8.50
2018-05-14T03:48:16.017Z,8.33
2018-05-14T03:50:43.493Z,8.20
2018-05-14T03:53:11.774Z,8.23
2018-05-14T03:55:39.267Z,8.30
2018-05-14T03:58:07.628Z,7.87
2018-05-14T04:00:47.925Z,7.63
2018-05-14T04:03:27.286Z,7.30
2018-05-14T04:06:06.577Z,8.67
2018-05-14T04:08:34.090Z,9.13
2018-05-14T04:11:01.579Z,8.50
2018-05-14T04:13:29.841Z,8.10
2018-05-14T04:15:57.333Z,9.30
2018-05-14T04:18:24.833Z,8.43
2018-05-14T04:20:52.307Z,8.40
2018-05-14T04:23:19.819Z,8.00
2018-05-14T04:25:47.325Z,9.60
2018-05-14T04:28:15.607Z,8.10
2018-05-14T04:30:43.133Z,8.10
2018-05-14T04:33:10.666Z,7.80
2018-05-14T04:35:38.150Z,7.83
2018-05-14T04:38:05.641Z,7.20
2018-05-14T04:40:33.168Z,7.80
2018-05-14T04:43:00.632Z,8.27
2018-05-14T04:45:28.129Z,9.17
2018-05-14T04:47:56.398Z,7.63
2018-05-14T04:50:23.918Z,7.70
2018-05-14T04:52:51.400Z,7.53
2018-05-14T04:55:18.901Z,7.17
2018-05-14T04:57:46.391Z,9.73
2018-05-14T05:00:13.909Z,8.00
2018-05-14T05:02:42.153Z,8.90
2018-05-14T05:05:09.672Z,8.50
2018-05-14T05:07:37.165Z,7.20
2018-05-14T05:10:04.661Z,7.47
2018-05-14T05:12:33.080Z,8.80
2018-05-14T05:15:00.585Z,9.40
2018-05-14T05:17:28.069Z,9.07
2018-05-14T05:19:56.305Z,9.60
2018-05-14T05:22:23.810Z,8.53
2018-05-14T05:24:52.042Z,8.33
2018-05-14T05:27:19.530Z,9.70
2018-05-14T05:29:47.780Z,9.43
2018-05-14T05:32:15.282Z,8.17
2018-05-14T05:34:43.520Z,8.73
2018-05-14T05:37:11.027Z,7.90
2018-05-14T05:39:38.539Z,7.77
2018-05-14T05:42:06.067Z,7.50
2018-05-14T05:44:33.582Z,6.73
2018-05-14T05:47:01.844Z,7.23
2018-05-14T05:49:30.129Z,7.13
2018-05-14T05:51:58.390Z,6.20
2018-05-14T05:54:25.901Z,5.20
2018-05-14T05:56:53.400Z,7.80
2018-05-14T05:59:20.920Z,6.83
2018-05-14T06:01:48.398Z,6.80
2018-05-14T06:04:15.904Z,6.40
2018-05-14T06:06:44.152Z,7.10
2018-05-14T06:09:11.650Z,7.37
2018-05-14T06:11:39.937Z,7.20
2018-05-14T06:14:07.443Z,7.27
2018-05-14T06:16:34.938Z,6.50
2018-05-14T06:19:03.241Z,6.20
2018-05-14T06:21:30.710Z,6.30
2018-05-14T06:23:58.239Z,6.97
2018-05-14T06:26:26.512Z,7.60
2018-05-14T06:28:54.778Z,7.20
2018-05-14T06:31:23.064Z,8.60
2018-05-14T06:33:51.306Z,7.27
2018-05-14T06:36:18.819Z,8.20
2018-05-14T06:38:46.677Z,7.80
2018-05-14T06:41:14.801Z,8.83
2018-05-14T06:43:42.302Z,9.77
2018-05-14T06:46:10.584Z,9.20
2018-05-14T06:48:38.819Z,9.90
2018-05-14T06:51:06.306Z,9.00
2018-05-14T06:53:34.544Z,10.50
2018-05-14T06:56:02.065Z,8.60
2018-05-14T06:58:29.570Z,9.00
2018-05-14T07:00:57.072Z,8.63
2018-05-14T07:03:25.354Z,8.23
2018-05-14T07:05:53.611Z,9.33
2018-05-14T07:08:21.896Z,9.03
2018-05-14T07:10:50.145Z,7.33
2018-05-14T07:13:17.654Z,8.10
2018-05-14T07:15:45.114Z,7.13
2018-05-14T07:18:12.627Z,6.83
2018-05-14T07:20:40.107Z,7.87
2018-05-14T07:23:08.389Z,7.40
2018-05-14T07:25:36.659Z,8.03
2018-05-14T07:28:04.901Z,7.13
2018-05-14T07:30:32.384Z,7.90
2018-05-14T07:32:59.867Z,7.00
2018-05-14T07:35:27.389Z,6.70
2018-05-14T07:37:54.847Z,7.07
2018-05-14T07:40:22.353Z,7.47
2018-05-14T07:42:49.824Z,7.40
2018-05-14T07:45:17.321Z,6.60
2018-05-14T07:47:44.849Z,7.30
2018-05-14T07:50:12.354Z,8.03
2018-05-14T07:52:41.345Z,8.23
2018-05-14T07:55:08.842Z,8.47
2018-05-14T07:57:36.326Z,8.40
2018-05-14T08:00:03.822Z,9.10
2018-05-14T08:02:32.049Z,8.00
2018-05-14T08:04:59.582Z,8.63
2018-05-14T08:07:27.854Z,10.00
2018-05-14T08:09:56.082Z,9.10
2018-05-14T08:12:23.592Z,7.67
2018-05-14T08:14:51.831Z,10.07
2018-05-14T08:17:19.337Z,10.40
2018-05-14T08:19:46.808Z,9.60
2018-05-14T08:22:14.309Z,9.07
2018-05-14T08:24:42.564Z,9.90
2018-05-14T08:27:10.078Z,9.70
2018-05-14T08:29:38.332Z,9.83
2018-05-14T08:32:05.840Z,10.00
2018-05-14T08:34:33.297Z,9.97
2018-05-14T08:37:00.909Z,10.60
2018-05-14T08:39:29.065Z,12.30
2018-05-14T08:41:56.553Z,11.60
2018-05-14T08:44:24.837Z,11.93
2018-05-14T08:46:53.495Z,12.57
2018-05-14T08:49:20.956Z,10.70
2018-05-14T08:51:48.432Z,11.20
2018-05-14T08:54:16.815Z,13.03
2018-05-14T08:56:44.181Z,12.10
2018-05-14T08:59:12.485Z,13.43
2018-05-14T09:01:39.945Z,13.83
2018-05-14T09:04:07.453Z,13.60
2018-05-14T09:06:34.921Z,14.13
2018-05-14T09:09:03.201Z,13.23
2018-05-14T09:11:31.451Z,13.97
2018-05-14T09:13:58.937Z,15.37
2018-05-14T09:16:27.201Z,15.87
2018-05-14T09:18:54.721Z,13.80
2018-05-14T09:21:22.239Z,15.13
2018-05-14T09:23:50.470Z,15.70
2018-05-14T09:26:17.985Z,12.30
2018-05-14T09:28:46.225Z,12.87
2018-05-14T09:31:13.728Z,14.90
2018-05-14T09:33:41.249Z,15.03
2018-05-14T09:36:08.774Z,15.37
2018-05-14T09:38:36.275Z,13.97
2018-05-14T09:41:03.774Z,13.63
2018-05-14T09:43:31.329Z,13.50
2018-05-14T09:45:58.799Z,13.77
2018-05-14T09:48:26.319Z,13.53
2018-05-14T09:50:54.556Z,14.40
2018-05-14T09:53:22.060Z,12.80
2018-05-14T09:55:50.333Z,13.80
2018-05-14T09:58:18.617Z,13.90
2018-05-14T10:00:46.858Z,14.40
2018-05-14T10:03:14.348Z,15.20
2018-05-14T10:05:42.585Z,15.10
2018-05-14T10:08:10.066Z,16.00
2018-05-14T10:10:37.570Z,16.83
2018-05-14T10:13:05.072Z,16.63
2018-05-14T10:15:32.551Z,15.20
2018-05-14T10:18:00.789Z,16.07
2018-05-14T10:20:28.291Z,16.27
2018-05-14T10:22:56.788Z,14.87
2018-05-14T10:25:24.844Z,15.27
2018-05-14T10:27:53.077Z,13.93
2018-05-14T10:30:20.603Z,14.30
2018-05-14T10:32:48.120Z,15.70
2018-05-14T10:35:15.610Z,15.40
2018-05-14T10:37:43.073Z,13.00
2018-05-14T10:40:10.586Z,14.80
2018-05-14T10:42:38.088Z,14.40
2018-05-14T10:45:06.383Z,15.50
2018-05-14T10:47:33.870Z,16.17
2018-05-14T10:50:01.363Z,15.87
2018-05-14T10:52:29.637Z,15.40
2018-05-14T10:54:57.890Z,17.80
2018-05-14T10:57:25.366Z,15.90
2018-05-14T10:59:52.874Z,16.60
2018-05-14T11:02:21.061Z,15.53
2018-05-14T11:04:48.529Z,16.43
2018-05-14T11:07:16.037Z,17.10
2018-05-14T11:09:44.293Z,17.70
2018-05-14T11:12:11.803Z,17.93
2018-05-14T11:14:39.273Z,18.00
2018-05-14T11:17:06.773Z,16.83
2018-05-14T11:19:35.050Z,17.03
2018-05-14T11:22:03.368Z,18.23
2018-05-14T11:24:30.877Z,18.80
2018-05-14T11:26:58.393Z,19.93
2018-05-14T11:29:25.906Z,20.13
2018-05-14T11:31:53.402Z,20.43
2018-05-14T11:34:20.873Z,20.87
2018-05-14T11:36:48.389Z,19.87
2018-05-14T11:39:16.646Z,19.30
2018-05-14T11:41:44.143Z,20.70
2018-05-14T11:44:11.682Z,22.13
2018-05-14T11:46:39.939Z,20.70
2018-05-14T11:49:07.421Z,22.90
2018-05-14T11:51:35.677Z,20.40
2018-05-14T11:54:03.181Z,20.30
2018-05-14T11:56:30.649Z,19.93
2018-05-14T11:58:58.161Z,22.30
2018-05-14T12:01:25.643Z,20.97
2018-05-14T12:03:53.935Z,22.83
2018-05-14T12:06:21.405Z,23.20
2018-05-14T12:08:48.901Z,22.30
2018-05-14T12:11:16.380Z,22.23
2018-05-14T12:13:44.681Z,22.57
2018-05-14T12:16:12.235Z,23.07
2018-05-14T12:18:39.659Z,22.13
2018-05-14T12:21:07.928Z,21.80
2018-05-14T12:23:35.392Z,21.67
2018-05-14T12:26:02.889Z,22.40
2018-05-14T12:28:30.349Z,22.73
2018-05-14T12:30:57.850Z,20.33
2018-05-14T12:33:25.321Z,23.63
2018-05-14T12:35:52.809Z,22.87
2018-05-14T12:38:21.042Z,21.50
2018-05-14T12:40:48.541Z,22.07
2018-05-14T12:43:16.804Z,20.80
2018-05-14T12:45:44.312Z,20.70
2018-05-14T12:48:11.812Z,20.00
2018-05-14T12:50:39.292Z,18.47
2018-05-14T12:53:07.534Z,16.87
2018-05-14T12:55:35.025Z,17.40
2018-05-14T12:58:03.284Z,18.10
2018-05-14T13:00:30.764Z,18.87
2018-05-14T13:02:59.035Z,18.03
2018-05-14T13:05:27.270Z,16.00
2018-05-14T13:07:54.783Z,14.40
2018-05-14T13:10:23.046Z,14.77
2018-05-14T13:12:50.544Z,14.73
2018-05-14T13:15:18.024Z,18.07
2018-05-14T13:17:45.540Z,16.10
2018-05-14T13:20:13.777Z,16.97
2018-05-14T13:22:41.278Z,17.33
2018-05-14T13:25:08.792Z,16.63
2018-05-14T13:27:36.265Z,17.43
2018-05-14T13:30:03.761Z,16.40
2018-05-14T13:32:31.258Z,16.67
2018-05-14T13:34:58.750Z,18.73
2018-05-14T13:37:26.279Z,18.83
2018-05-14T13:39:53.776Z,19.70
2018-05-14T13:42:22.022Z,20.00
2018-05-14T13:44:49.526Z,20.33
2018-05-14T13:47:17.026Z,17.47
2018-05-14T13:49:44.545Z,17.60
2018-05-14T13:52:12.043Z,19.47
2018-05-14T13:54:39.573Z,18.53
2018-05-14T13:57:07.048Z,17.80
2018-05-14T13:59:34.529Z,17.37
2018-05-14T14:02:02.025Z,18.53
2018-05-14T14:04:30.269Z,19.87
2018-05-14T14:06:57.768Z,17.83
2018-05-14T14:09:26.017Z,19.23
2018-05-14T14:11:53.511Z,19.60
2018-05-14T14:14:21.002Z,18.70
2018-05-14T14:16:48.497Z,18.00
2018-05-14T14:19:16.015Z,18.23
2018-05-14T14:21:43.527Z,20.17
2018-05-14T14:24:11.826Z,19.60
2018-05-14T14:26:39.323Z,19.80
2018-05-14T14:29:06.803Z,21.20
2018-05-14T14:31:34.304Z,21.63
2018-05-14T14:34:01.833Z,19.80
2018-05-14T14:36:29.481Z,21.67
2018-05-14T14:38:57.585Z,20.57
2018-05-14T14:41:25.830Z,21.00
2018-05-14T14:43:53.322Z,21.77
2018-05-14T14:46:21.641Z,21.70
2018-05-14T14:48:49.082Z,20.70
2018-05-14T14:51:16.561Z,22.67
2018-05-14T14:53:44.061Z,21.80
2018-05-14T14:56:12.323Z,21.90
2018-05-14T14:58:39.827Z,21.47
2018-05-14T15:01:07.309Z,19.27
2018-05-14T15:03:34.823Z,19.77
2018-05-14T15:06:03.116Z,20.97
2018-05-14T15:08:30.935Z,21.20
2018-05-14T15:10:58.413Z,20.33
2018-05-14T15:13:26.696Z,20.20
2018-05-14T15:15:54.966Z,19.80
2018-05-14T15:18:22.575Z,19.83
2018-05-14T15:20:50.059Z,19.30
2018-05-14T15:23:17.521Z,20.23
2018-05-14T15:25:45.033Z,22.23
2018-05-14T15:28:12.530Z,22.70
2018-05-14T15:30:40.034Z,20.67
2018-05-14T15:33:08.321Z,23.10
2018-05-14T15:35:36.591Z,22.40
2018-05-14T15:38:04.834Z,24.67
2018-05-14T15:40:32.329Z,24.37
2018-05-14T15:43:00.564Z,26.67
2018-05-14T15:45:28.080Z,25.67
2018-05-14T15:47:55.577Z,26.23
2018-05-14T15:50:23.064Z,29.00
2018-05-14T15:52:51.342Z,25.77
2018-05-14T15:55:19.602Z,26.77
2018-05-14T15:57:47.102Z,26.33
2018-05-14T16:00:14.639Z,28.10
2018-05-14T16:02:42.889Z,29.80
2018-05-14T16:05:10.420Z,25.93
2018-05-14T16:07:37.943Z,24.87
2018-05-14T16:10:06.181Z,28.60
2018-05-14T16:12:33.763Z,23.43
2018-05-14T16:15:01.230Z,23.57
2018-05-14T16:17:29.480Z,22.50
2018-05-14T16:19:57.779Z,21.30
2018-05-14T16:22:25.289Z,23.50
2018-05-14T16:24:52.803Z,22.20
2018-05-14T16:27:21.089Z,21.87
2018-05-14T16:29:49.366Z,20.80
2018-05-14T16:32:17.661Z,19.50
2018-05-14T16:34:45.612Z,20.50
2018-05-14T16:37:13.882Z,19.97
2018-05-14T16:39:42.173Z,21.50
2018-05-14T16:42:10.405Z,19.03
2018-05-14T16:44:37.905Z,19.73
2018-05-14T16:47:05.414Z,20.27
2018-05-14T16:49:32.982Z,19.53
2018-05-14T16:52:00.458Z,21.27
2018-05-14T16:54:27.988Z,19.70
2018-05-14T16:56:55.453Z,21.03
2018-05-14T16:59:22.926Z,20.80
2018-05-14T17:01:50.431Z,20.90
2018-05-14T17:04:17.912Z,20.93
2018-05-14T17:06:45.422Z,20.50
2018-05-14T17:09:13.684Z,22.03
2018-05-14T17:11:41.941Z,21.97
2018-05-14T17:14:09.439Z,21.80
2018-05-14T17:16:37.697Z,20.50
2018-05-14T17:19:05.216Z,22.70
2018-05-14T17:21:32.709Z,23.60
2018-05-14T17:24:01.743Z,23.90
2018-05-14T17:26:29.301Z,22.80
2018-05-14T17:28:57.548Z,22.80
2018-05-14T17:31:25.053Z,23.80
2018-05-14T17:33:52.552Z,23.43
2018-05-14T17:36:20.086Z,22.90
2018-05-14T17:38:47.573Z,23.33
2018-05-14T17:41:16.619Z,23.00
2018-05-14T17:43:44.108Z,25.00
2018-05-14T17:46:11.631Z,24.17
2018-05-14T17:48:39.112Z,23.63
2018-05-14T17:51:06.632Z,25.10
2018-05-14T17:53:34.878Z,25.87
2018-05-14T17:56:02.399Z,26.03
2018-05-14T17:58:29.901Z,26.50
2018-05-14T18:00:57.385Z,28.40
2018-05-14T18:03:25.647Z,32.37
2018-05-14T18:05:54.616Z,32.50
2018-05-14T18:08:22.103Z,29.40
2018-05-14T18:10:49.618Z,32.53
2018-05-14T18:13:17.095Z,34.13
2018-05-14T18:15:44.556Z,33.20
2018-05-14T18:18:12.068Z,30.97
2018-05-14T18:20:40.388Z,31.20
2018-05-14T18:23:07.882Z,31.03
2018-05-14T18:25:41.896Z,31.90
2018-05-14T18:28:15.086Z,31.70
2018-05-14T18:30:45.962Z,31.80
2018-05-14T18:33:13.462Z,32.87
2018-05-14T18:35:56.566Z,31.97
2018-05-14T18:38:24.078Z,32.80
2018-05-14T18:40:52.346Z,29.07
2018-05-14T18:43:20.639Z,31.00
2018-05-14T18:45:48.106Z,31.23
2018-05-14T18:48:15.613Z,31.60
2018-05-14T18:50:43.126Z,29.30
2018-05-14T18:53:10.613Z,31.10
2018-05-14T18:55:38.133Z,29.33
2018-05-14T18:58:06.381Z,29.50
2018-05-14T19:00:33.901Z,30.00
2018-05-14T19:03:01.376Z,29.57
2018-05-14T19:05:28.882Z,33.00
2018-05-14T19:07:57.125Z,32.07
2018-05-14T19:10:31.970Z,29.77
2018-05-14T19:13:00.241Z,30.20
2018-05-14T19:15:34.209Z,27.63
2018-05-14T19:18:01.694Z,28.90
2018-05-14T19:20:29.212Z,30.27
2018-05-14T19:23:02.350Z,31.97
2018-05-14T19:25:29.823Z,34.03
2018-05-14T19:28:03.815Z,31.40
2018-05-14T19:30:31.317Z,29.23
2018-05-14T19:32:59.572Z,30.03
2018-05-14T19:38:30.078Z,31.87
2018-05-14T19:40:57.596Z,30.87
2018-05-14T19:43:25.881Z,33.57
2018-05-14T19:45:53.358Z,34.80
2018-05-14T19:48:20.889Z,35.20
2018-05-14T19:50:49.141Z,36.50
2018-05-14T19:53:16.657Z,36.70
2018-05-14T19:55:44.131Z,36.00
2018-05-14T19:58:11.667Z,36.57
2018-05-14T20:00:39.154Z,39.10
2018-05-14T20:03:06.680Z,39.03
2018-05-14T20:05:34.154Z,37.77
2018-05-14T20:08:01.633Z,40.07
2018-05-14T20:10:29.139Z,38.77
2018-05-14T20:12:57.395Z,42.10
2018-05-14T20:15:24.891Z,38.67
2018-05-14T20:17:52.395Z,38.57
2018-05-14T20:20:19.933Z,39.10
2018-05-14T20:22:47.436Z,40.70
2018-05-14T20:25:14.955Z,39.83
2018-05-14T20:27:42.450Z,38.67
2018-05-14T20:30:10.753Z,36.93
2018-05-14T20:32:39.000Z,34.50
2018-05-14T20:35:06.490Z,36.00
2018-05-14T20:37:33.983Z,35.10
2018-05-14T20:40:01.482Z,34.67
2018-05-14T20:42:29.750Z,34.07
2018-05-14T20:44:57.240Z,31.77
2018-05-14T20:47:24.764Z,30.37
2018-05-14T20:49:52.281Z,30.77
2018-05-14T20:52:19.795Z,28.33
2018-05-14T20:54:48.050Z,28.17
2018-05-14T20:57:15.572Z,30.00
2018-05-14T20:59:43.201Z,29.27
2018-05-14T21:02:11.384Z,31.07
2018-05-14T21:04:39.621Z,34.60
2018-05-14T21:07:07.926Z,34.83
2018-05-14T21:09:37.013Z,32.03
2018-05-14T21:12:04.510Z,33.33
2018-05-14T21:14:31.982Z,33.00
2018-05-14T21:16:59.490Z,30.50
2018-05-14T21:19:27.003Z,25.70
2018-05-14T21:21:54.605Z,23.00
2018-05-14T21:24:22.861Z,22.67
2018-05-14T21:26:50.387Z,24.57
2018-05-14T21:29:17.876Z,22.57
2018-05-14T21:31:45.376Z,20.77
2018-05-14T21:34:13.648Z,18.50
2018-05-14T21:36:41.893Z,18.63
2018-05-14T21:39:09.420Z,17.57
2018-05-14T21:41:36.904Z,17.27
2018-05-14T21:44:04.393Z,15.60
2018-05-14T21:46:31.925Z,14.40
2018-05-14T21:48:59.406Z,12.90
2018-05-14T21:51:26.927Z,13.70
2018-05-14T21:53:54.426Z,13.27
2018-05-14T21:56:21.953Z,12.97
2018-05-14T21:58:49.456Z,12.77
2018-05-14T22:01:17.696Z,12.43
2018-05-14T22:03:45.195Z,11.00
2018-05-14T22:06:14.262Z,12.67
2018-05-14T22:08:41.742Z,12.07
2018-05-14T22:11:10.015Z,11.70
2018-05-14T22:13:38.272Z,11.97
2018-05-14T22:16:05.769Z,11.90
2018-05-14T22:18:34.056Z,11.83
2018-05-14T22:21:02.299Z,11.33
2018-05-14T22:23:29.805Z,10.37
2018-05-14T22:25:57.292Z,11.00
2018-05-14T22:28:24.806Z,13.00
2018-05-14T22:30:53.073Z,13.07
2018-05-14T22:33:21.362Z,14.30
2018-05-14T22:35:49.633Z,14.13
2018-05-14T22:38:17.142Z,11.83
2018-05-14T22:40:44.618Z,12.90
2018-05-14T22:43:12.140Z,12.60
2018-05-14T22:45:39.606Z,13.50
2018-05-14T22:48:07.125Z,14.87
2018-05-14T22:50:35.372Z,14.37
2018-05-14T22:53:02.888Z,13.93
2018-05-14T22:55:30.425Z,13.43
2018-05-14T22:57:57.939Z,13.73
2018-05-14T23:00:27.283Z,12.50
2018-05-14T23:02:55.553Z,12.30
2018-05-14T23:05:23.794Z,13.10
2018-05-14T23:07:51.314Z,12.00
2018-05-14T23:10:18.810Z,11.27
2018-05-14T23:12:46.292Z,10.67
2018-05-14T23:15:14.573Z,11.03
2018-05-14T23:17:42.808Z,10.10
2018-05-14T23:20:10.306Z,9.47
2018-05-14T23:22:41.401Z,9.33
2018-05-14T23:25:08.901Z,8.70
2018-05-14T23:27:36.372Z,9.67
2018-05-14T23:30:04.649Z,8.40
2018-05-14T23:32:32.913Z,8.50
2018-05-14T23:35:00.420Z,7.73
2018-05-14T23:37:27.901Z,8.50
2018-05-14T23:39:55.368Z,8.63
2018-05-14T23:42:22.854Z,8.57
2018-05-14T23:44:51.096Z,8.30
2018-05-14T23:47:18.596Z,8.00
2018-05-14T23:49:46.842Z,8.37
2018-05-14T23:52:14.358Z,7.80
2018-05-14T23:54:41.831Z,7.57
2018-05-14T23:57:09.329Z,6.70
2018-05-14T23:59:36.829Z,6.33
